Time;durP1;ratioP1;P1;durP2;ratioP2;P2;SDS_P1;SDS_P2;PMS_P1;PMS_P2;Temp;Humidity;BMP_temperature;BMP_pressure;BME280_temperature;BME280_humidity;BME280_pressure;Samples;Min_cycle;Max_cycle;Signal;HPM_P1;HPM_P2
2022/12/23 05:00:32;;;;;;;6.43;5.50;;;6.10;99.90;;;;;;5899339;23;20676;-66
2022/12/23 05:02:59;;;;;;;10.10;6.10;;;6.10;99.90;;;;;;4986325;28;20590;-67
2022/12/23 05:05:25;;;;;;;4.82;3.65;;;6.10;99.90;;;;;;4988112;28;20217;-67
2022/12/23 05:08:01;;;;;;;7.45;4.97;;;6.10;99.90;;;;;;4991566;28;20210;-66
2022/12/23 05:10:28;;;;;;;9.85;4.85;;;6.20;99.90;;;;;;4987064;28;20209;-67
2022/12/23 05:12:55;;;;;;;7.53;3.92;;;6.20;99.90;;;;;;4971638;28;20215;-67
2022/12/23 05:15:21;;;;;;;10.23;4.95;;;6.20;99.90;;;;;;4964884;28;20219;-66
2022/12/23 05:17:49;;;;;;;6.32;5.70;;;6.20;99.90;;;;;;4962876;28;20230;-67
2022/12/23 05:20:16;;;;;;;5.07;4.55;;;6.20;99.90;;;;;;4960540;28;20202;-66
2022/12/23 05:22:43;;;;;;;12.55;5.90;;;6.20;99.90;;;;;;4961503;28;20257;-66
2022/12/23 05:25:10;;;;;;;9.18;6.20;;;6.20;99.90;;;;;;4962820;28;20260;-65
2022/12/23 05:27:36;;;;;;;15.65;7.13;;;6.20;99.90;;;;;;4958882;28;20219;-66
2022/12/23 05:30:03;;;;;;;5.35;4.38;;;6.20;99.90;;;;;;4953373;29;20241;-66
2022/12/23 05:32:30;;;;;;;7.10;6.40;;;6.20;99.90;;;;;;4966296;28;20232;-66
2022/12/23 05:34:58;;;;;;;6.28;5.05;;;6.30;99.90;;;;;;4958421;28;20223;-66
2022/12/23 05:37:25;;;;;;;7.68;4.32;;;6.30;99.90;;;;;;4957617;28;20654;-66
2022/12/23 05:39:51;;;;;;;7.50;3.75;;;6.30;99.90;;;;;;4968511;28;20584;-66
2022/12/23 05:42:18;;;;;;;14.20;7.10;;;6.30;99.90;;;;;;4964089;28;20250;-66
2022/12/23 05:44:45;;;;;;;4.28;3.60;;;6.30;99.90;;;;;;4971690;28;20680;-66
2022/12/23 05:47:12;;;;;;;5.60;4.55;;;6.30;99.90;;;;;;4963966;28;20618;-66
2022/12/23 05:49:38;;;;;;;8.32;5.75;;;6.30;99.90;;;;;;4964161;28;20288;-66
2022/12/23 05:52:06;;;;;;;7.28;4.10;;;6.30;99.90;;;;;;4969064;28;20230;-67
2022/12/23 05:54:33;;;;;;;6.25;4.70;;;6.30;99.90;;;;;;4965041;28;20219;-67
2022/12/23 05:57:00;;;;;;;9.43;5.72;;;6.30;99.90;;;;;;4960682;28;20238;-67
2022/12/23 05:59:26;;;;;;;20.00;5.70;;;6.30;99.90;;;;;;4965375;28;20579;-67
2022/12/23 06:01:53;;;;;;;9.32;4.93;;;6.30;99.90;;;;;;4962800;28;20242;-67
2022/12/23 06:04:20;;;;;;;15.73;4.95;;;6.20;99.90;;;;;;4963706;28;20206;-67
2022/12/23 06:06:46;;;;;;;10.20;5.65;;;6.20;99.90;;;;;;4972339;28;20276;-67
2022/12/23 06:09:14;;;;;;;8.73;4.97;;;6.20;99.90;;;;;;4963087;28;20281;-67
2022/12/23 06:11:41;;;;;;;8.35;5.10;;;6.10;99.90;;;;;;4966426;28;20230;-67
2022/12/23 06:14:08;;;;;;;6.65;5.85;;;6.10;99.90;;;;;;4961617;28;20631;-67
2022/12/23 06:16:34;;;;;;;7.80;4.20;;;6.10;99.90;;;;;;4965873;28;20652;-65
2022/12/23 06:19:01;;;;;;;8.15;4.47;;;6.10;99.90;;;;;;4963938;28;20318;-66
2022/12/23 06:21:28;;;;;;;12.48;5.43;;;6.10;99.90;;;;;;4969213;28;20230;-65
2022/12/23 06:23:54;;;;;;;6.57;3.85;;;6.10;99.90;;;;;;4968134;28;20215;-66
2022/12/23 06:26:22;;;;;;;3.92;3.53;;;6.10;99.90;;;;;;4960205;28;20210;-66
2022/12/23 06:28:49;;;;;;;4.00;3.70;;;6.10;99.90;;;;;;4965478;28;20213;-66
2022/12/23 06:31:16;;;;;;;4.85;2.45;;;6.10;99.90;;;;;;4953437;28;20231;-66
2022/12/23 06:33:43;;;;;;;5.72;3.70;;;6.10;99.90;;;;;;4960010;28;20219;-66
2022/12/23 06:36:10;;;;;;;11.27;8.00;;;6.10;99.90;;;;;;4962181;28;20673;-66
2022/12/23 06:38:36;;;;;;;6.95;3.65;;;6.10;99.90;;;;;;4970461;28;20316;-66
2022/12/23 06:41:03;;;;;;;18.63;6.57;;;6.20;99.90;;;;;;4954967;28;20784;-66
2022/12/23 06:43:31;;;;;;;4.90;4.50;;;6.20;99.90;;;;;;4970480;28;20206;-66
2022/12/23 06:45:58;;;;;;;6.43;3.83;;;6.20;99.90;;;;;;4959608;28;20211;-66
2022/12/23 06:48:25;;;;;;;10.00;8.77;;;6.20;99.90;;;;;;4966072;28;20203;-66
2022/12/23 06:50:51;;;;;;;6.28;5.18;;;6.10;99.90;;;;;;4958689;28;20801;-66
2022/12/23 06:53:18;;;;;;;9.93;4.25;;;6.10;99.90;;;;;;4970708;28;20301;-66
2022/12/23 06:55:45;;;;;;;9.95;5.75;;;6.10;99.90;;;;;;4968561;28;20281;-67
2022/12/23 06:58:12;;;;;;;7.72;5.80;;;6.10;99.90;;;;;;4959375;28;20225;-66
2022/12/23 07:00:40;;;;;;;9.60;6.00;;;6.10;99.90;;;;;;4961322;28;20239;-65
2022/12/23 07:03:06;;;;;;;8.63;4.50;;;6.10;99.90;;;;;;4966424;28;20727;-66
2022/12/23 07:05:34;;;;;;;7.93;5.78;;;6.00;99.90;;;;;;4964232;28;20634;-66
2022/12/23 07:08:01;;;;;;;7.50;4.47;;;6.10;99.90;;;;;;4962770;28;20665;-66
2022/12/23 07:10:28;;;;;;;14.20;4.28;;;6.10;99.90;;;;;;4961384;28;20574;-66
2022/12/23 07:12:54;;;;;;;11.18;5.00;;;6.10;99.90;;;;;;4963733;28;20206;-66
2022/12/23 07:15:21;;;;;;;8.23;6.78;;;6.10;99.90;;;;;;4970670;28;20221;-65
2022/12/23 07:17:49;;;;;;;9.13;5.88;;;6.10;99.90;;;;;;4967953;28;20658;-66
2022/12/23 07:20:16;;;;;;;13.68;8.27;;;6.10;99.90;;;;;;4968225;28;20210;-66
2022/12/23 07:22:42;;;;;;;9.95;3.78;;;6.10;99.90;;;;;;4966915;28;20624;-66
2022/12/23 07:25:09;;;;;;;13.73;3.83;;;6.10;99.90;;;;;;4959284;28;20731;-66
2022/12/23 07:27:36;;;;;;;9.13;5.18;;;6.10;99.90;;;;;;4959769;28;20212;-66
2022/12/23 07:30:03;;;;;;;10.43;5.28;;;6.10;99.90;;;;;;4968860;28;20665;-66
2022/12/23 07:32:30;;;;;;;14.57;5.40;;;6.10;99.90;;;;;;4961033;28;20222;-65
2022/12/23 07:34:58;;;;;;;6.15;3.85;;;6.20;99.90;;;;;;4958340;28;20302;-66
2022/12/23 07:37:24;;;;;;;5.93;3.40;;;6.20;99.90;;;;;;4955265;28;20229;-66
2022/12/23 07:39:51;;;;;;;4.15;3.47;;;6.10;99.90;;;;;;4961049;28;20202;-67
2022/12/23 07:42:18;;;;;;;8.85;3.95;;;6.20;99.90;;;;;;4961723;28;20241;-67
2022/12/23 07:44:44;;;;;;;12.98;4.60;;;6.10;99.90;;;;;;4970206;28;20214;-67
2022/12/23 07:47:11;;;;;;;4.20;3.90;;;6.20;99.90;;;;;;4960170;28;20204;-67
2022/12/23 07:49:38;;;;;;;10.82;4.68;;;6.20;99.90;;;;;;4951258;28;20748;-67
2022/12/23 07:52:06;;;;;;;10.90;4.95;;;6.10;99.90;;;;;;4964954;28;20241;-67
2022/12/23 07:54:32;;;;;;;8.43;5.72;;;6.20;99.90;;;;;;4964698;28;20262;-67
2022/12/23 07:56:59;;;;;;;9.43;5.40;;;6.20;99.90;;;;;;4963873;28;20218;-67
2022/12/23 07:59:26;;;;;;;17.13;4.07;;;6.10;99.90;;;;;;4966702;28;20207;-67
2022/12/23 08:01:53;;;;;;;15.10;5.90;;;6.10;99.90;;;;;;4965484;28;20332;-67
2022/12/23 08:04:20;;;;;;;7.45;3.17;;;6.10;99.90;;;;;;4960079;28;20211;-67
2022/12/23 08:06:46;;;;;;;12.18;6.80;;;6.10;99.90;;;;;;4965464;28;20214;-67
2022/12/23 08:09:14;;;;;;;5.60;3.50;;;6.20;99.90;;;;;;4966044;28;20225;-67
2022/12/23 08:11:41;;;;;;;4.47;3.60;;;6.10;99.90;;;;;;4967759;28;20231;-67
2022/12/23 08:14:08;;;;;;;24.48;4.90;;;6.20;99.90;;;;;;4962701;28;20219;-67
2022/12/23 08:16:34;;;;;;;7.10;4.10;;;6.20;99.90;;;;;;4963720;28;20221;-64
2022/12/23 08:19:01;;;;;;;3.60;3.30;;;6.20;99.90;;;;;;4965502;28;20247;-65
2022/12/23 08:21:27;;;;;;;10.82;4.47;;;6.20;99.90;;;;;;4973652;28;20230;-66
2022/12/23 08:23:54;;;;;;;5.78;3.00;;;6.20;99.90;;;;;;4965733;28;20213;-65
2022/12/23 08:26:24;;;;;;;21.77;4.97;;;6.30;99.90;;;;;;4973648;28;20337;-66
2022/12/23 08:28:52;;;;;;;16.45;4.45;;;6.30;99.90;;;;;;4968917;28;20203;-66
2022/12/23 08:31:21;;;;;;;6.75;3.95;;;6.30;99.90;;;;;;4967932;28;20341;-66
2022/12/23 08:33:49;;;;;;;11.60;4.63;;;6.40;99.90;;;;;;4964272;28;20219;-65
2022/12/23 08:36:19;;;;;;;9.88;4.40;;;6.40;99.90;;;;;;4967320;28;20217;-65
2022/12/23 08:38:46;;;;;;;7.30;6.70;;;6.40;99.90;;;;;;4967997;28;20277;-65
2022/12/23 08:41:14;;;;;;;12.63;4.47;;;6.40;99.90;;;;;;4966396;28;20230;-65
2022/12/23 08:43:44;;;;;;;10.52;5.80;;;6.40;99.90;;;;;;4964214;28;20221;-65
2022/12/23 08:46:10;;;;;;;13.02;6.10;;;6.40;99.90;;;;;;4971889;28;20214;-66
2022/12/23 08:48:38;;;;;;;10.43;6.05;;;6.40;99.90;;;;;;4973528;28;20694;-66
2022/12/23 08:51:07;;;;;;;9.80;5.93;;;6.40;99.90;;;;;;4975197;28;20688;-66
2022/12/23 08:53:35;;;;;;;5.65;5.15;;;6.40;99.90;;;;;;4977425;28;20206;-66
2022/12/23 08:56:03;;;;;;;8.20;5.43;;;6.40;99.90;;;;;;4991846;28;20760;-65
2022/12/23 08:58:30;;;;;;;9.38;5.38;;;6.50;99.90;;;;;;4974982;28;20219;-65
2022/12/23 09:01:02;;;;;;;8.60;4.18;;;6.40;99.90;;;;;;4969907;28;20238;-66
2022/12/23 09:03:28;;;;;;;17.42;4.60;;;6.50;99.90;;;;;;4969126;28;20348;-68
2022/12/23 09:05:55;;;;;;;10.77;3.35;;;6.50;99.90;;;;;;4963307;28;20214;-67
2022/12/23 09:08:22;;;;;;;8.93;3.08;;;6.50;99.90;;;;;;4983434;28;20199;-69
2022/12/23 09:10:49;;;;;;;5.15;4.13;;;6.50;99.90;;;;;;4963755;28;20599;-66
2022/12/23 09:13:16;;;;;;;12.60;4.38;;;6.50;99.90;;;;;;4970112;28;20206;-68
2022/12/23 09:15:43;;;;;;;4.75;2.42;;;6.50;99.90;;;;;;4963434;28;20206;-68
2022/12/23 09:18:12;;;;;;;10.73;3.03;;;6.50;99.90;;;;;;4972140;28;20251;-68
2022/12/23 09:20:39;;;;;;;11.32;5.43;;;6.50;99.90;;;;;;4959957;28;20236;-68
2022/12/23 09:23:06;;;;;;;5.15;4.72;;;6.50;99.90;;;;;;4968293;28;20218;-68
2022/12/23 09:25:35;;;;;;;5.70;5.10;;;6.60;99.90;;;;;;4974964;28;20214;-66
2022/12/23 09:28:02;;;;;;;16.05;4.50;;;6.60;99.90;;;;;;4971582;28;20273;-66
2022/12/23 09:30:29;;;;;;;6.32;5.00;;;6.60;99.90;;;;;;4969549;28;20598;-66
2022/12/23 09:32:55;;;;;;;12.60;4.65;;;6.60;99.90;;;;;;4960911;28;20220;-66
2022/12/23 09:35:23;;;;;;;10.77;4.93;;;6.60;99.90;;;;;;4971337;28;20240;-66
2022/12/23 09:37:50;;;;;;;8.77;4.03;;;6.60;99.90;;;;;;4968739;28;20219;-67
2022/12/23 09:40:20;;;;;;;25.08;12.15;;;6.70;99.90;;;;;;4966613;28;20218;-67
2022/12/23 09:42:58;;;;;;;18.52;11.07;;;6.70;99.90;;;;;;4961428;28;20221;-67
2022/12/23 09:45:47;;;;;;;2.67;2.47;;;6.80;99.90;;;;;;4962070;28;20249;-67
2022/12/23 09:48:19;;;;;;;9.90;4.97;;;6.80;99.90;;;;;;4969337;28;20308;-66
2022/12/23 09:50:47;;;;;;;7.32;3.42;;;6.80;99.90;;;;;;4971033;28;20234;-66
2022/12/23 09:53:18;;;;;;;4.63;4.22;;;6.80;99.90;;;;;;4962647;28;20221;-66
2022/12/23 09:55:52;;;;;;;5.13;4.18;;;6.90;99.90;;;;;;4961988;28;20266;-66
2022/12/23 09:58:28;;;;;;;11.52;4.22;;;6.90;99.90;;;;;;4962338;28;20222;-66
2022/12/23 10:01:13;;;;;;;2.95;2.58;;;6.90;99.90;;;;;;4966229;28;20253;-66
2022/12/23 10:04:12;;;;;;;3.25;3.03;;;6.90;99.90;;;;;;4966287;28;20222;-66
2022/12/23 10:06:41;;;;;;;9.95;5.60;;;6.90;99.90;;;;;;4971891;28;20207;-67
2022/12/23 10:09:10;;;;;;;11.52;6.13;;;6.90;99.90;;;;;;4967961;28;20202;-65
2022/12/23 10:11:42;;;;;;;7.05;3.92;;;6.90;99.90;;;;;;4960925;28;20234;-65
2022/12/23 10:14:14;;;;;;;17.45;5.70;;;6.90;99.90;;;;;;4970733;28;20210;-66
2022/12/23 10:16:44;;;;;;;8.88;3.88;;;6.90;99.90;;;;;;4970304;28;20211;-67
2022/12/23 10:19:18;;;;;;;5.72;5.15;;;6.90;99.90;;;;;;4957679;28;20219;-66
2022/12/23 10:21:48;;;;;;;5.97;4.43;;;7.00;99.90;;;;;;4965518;28;20238;-67
2022/12/23 10:24:22;;;;;;;1.83;1.73;;;7.00;99.90;;;;;;4957259;28;20207;-66
2022/12/23 10:26:53;;;;;;;7.15;3.80;;;7.00;99.90;;;;;;4965475;28;20210;-66
2022/12/23 10:29:21;;;;;;;8.35;4.28;;;7.00;99.90;;;;;;4967518;28;20211;-64
2022/12/23 10:32:01;;;;;;;4.95;4.55;;;7.10;99.90;;;;;;4972089;28;20297;-65
2022/12/23 10:34:34;;;;;;;8.63;3.13;;;7.10;99.90;;;;;;4963161;28;20562;-66
2022/12/23 10:37:09;;;;;;;17.80;6.10;;;7.20;99.90;;;;;;4962582;28;20214;-66
2022/12/23 10:39:42;;;;;;;18.23;9.98;;;7.20;99.90;;;;;;4970302;28;20739;-66
2022/12/23 10:42:16;;;;;;;4.93;3.45;;;7.20;99.90;;;;;;4962361;28;20601;-67
2022/12/23 10:45:09;;;;;;;3.80;2.85;;;7.20;99.90;;;;;;4967793;28;20269;-65
2022/12/23 10:47:45;;;;;;;18.88;12.13;;;7.30;99.90;;;;;;4968323;28;20298;-66
2022/12/23 10:50:34;;;;;;;8.77;6.70;;;7.30;99.90;;;;;;4961517;28;20206;-67
2022/12/23 10:53:06;;;;;;;10.65;6.68;;;7.30;99.90;;;;;;4959754;28;20675;-67
2022/12/23 10:55:37;;;;;;;4.95;4.20;;;7.30;99.90;;;;;;4963666;28;20274;-65
2022/12/23 10:58:08;;;;;;;28.90;11.55;;;7.30;99.90;;;;;;4957058;28;20694;-66
2022/12/23 11:00:38;;;;;;;7.57;5.50;;;7.30;99.90;;;;;;4968564;28;20263;-67
2022/12/23 11:03:13;;;;;;;6.43;3.00;;;7.30;99.90;;;;;;4966780;28;20203;-68
2022/12/23 11:05:41;;;;;;;9.55;4.32;;;7.30;99.90;;;;;;4971440;28;20319;-66
2022/12/23 11:08:09;;;;;;;5.30;4.68;;;7.30;99.90;;;;;;4969003;28;20227;-66
2022/12/23 11:10:36;;;;;;;6.90;6.28;;;7.30;99.90;;;;;;4965781;28;20266;-66
2022/12/23 11:13:03;;;;;;;5.30;4.40;;;7.40;99.90;;;;;;4968743;28;20259;-66
2022/12/23 11:15:32;;;;;;;4.30;3.90;;;7.40;99.90;;;;;;4965545;28;20294;-68
2022/12/23 11:18:04;;;;;;;12.07;5.25;;;7.40;99.90;;;;;;4957287;28;20538;-66
2022/12/23 11:20:31;;;;;;;9.48;4.32;;;7.50;99.90;;;;;;4966510;28;20541;-66
2022/12/23 11:23:01;;;;;;;5.45;3.95;;;7.40;99.90;;;;;;4960606;28;20230;-66
2022/12/23 11:25:32;;;;;;;5.85;3.45;;;7.40;99.90;;;;;;4963317;28;20219;-66
2022/12/23 11:28:02;;;;;;;3.30;3.03;;;7.40;99.90;;;;;;4962911;28;20214;-66
2022/12/23 11:30:31;;;;;;;4.38;3.60;;;7.40;99.90;;;;;;4969249;28;20207;-66
2022/12/23 11:32:58;;;;;;;8.32;5.07;;;7.40;99.90;;;;;;4966116;28;20212;-66
2022/12/23 11:35:27;;;;;;;8.02;5.25;;;7.40;99.90;;;;;;4968443;28;20346;-66
2022/12/23 11:37:55;;;;;;;5.30;4.85;;;7.40;99.90;;;;;;4969488;28;20273;-66
2022/12/23 11:40:26;;;;;;;8.55;4.18;;;7.40;99.90;;;;;;4971544;28;20232;-66
2022/12/23 11:42:58;;;;;;;2.75;2.60;;;7.50;99.90;;;;;;4969134;28;20216;-66
2022/12/23 11:45:27;;;;;;;4.45;4.15;;;7.50;99.90;;;;;;4960829;28;20205;-66
2022/12/23 11:47:55;;;;;;;6.20;2.75;;;7.50;99.90;;;;;;4962786;28;20269;-66
2022/12/23 11:50:31;;;;;;;12.00;5.45;;;7.40;99.90;;;;;;4969594;28;20294;-66
2022/12/23 11:53:12;;;;;;;12.05;4.53;;;7.50;99.90;;;;;;4959993;28;20269;-66
2022/12/23 11:55:46;;;;;;;5.28;3.55;;;7.50;99.90;;;;;;4971363;28;20222;-66
2022/12/23 11:58:21;;;;;;;6.20;3.95;;;7.50;99.90;;;;;;4968463;28;20214;-67
2022/12/23 12:00:53;;;;;;;4.05;3.40;;;7.50;99.90;;;;;;4965966;28;20236;-66
2022/12/23 12:03:24;;;;;;;4.38;3.83;;;7.50;99.90;;;;;;4971691;28;20294;-66
2022/12/23 12:05:54;;;;;;;5.97;3.05;;;7.50;99.90;;;;;;4966745;28;20212;-65
2022/12/23 12:08:26;;;;;;;5.40;3.83;;;7.50;99.90;;;;;;4969505;28;20289;-65
2022/12/23 12:10:59;;;;;;;3.58;3.17;;;7.50;99.90;;;;;;4964776;28;20226;-65
2022/12/23 12:13:29;;;;;;;8.10;4.22;;;7.50;99.90;;;;;;4970299;28;20738;-66
2022/12/23 12:16:16;;;;;;;7.13;4.55;;;7.50;99.90;;;;;;4972873;28;20208;-67
2022/12/23 12:18:46;;;;;;;4.47;3.88;;;7.50;99.90;;;;;;4968365;28;20238;-67
2022/12/23 12:21:17;;;;;;;6.32;4.05;;;7.40;99.90;;;;;;4967322;28;20286;-67
2022/12/23 12:23:48;;;;;;;4.95;4.43;;;7.50;99.90;;;;;;4969602;28;20583;-66
2022/12/23 12:26:23;;;;;;;5.63;3.50;;;7.40;99.90;;;;;;4969854;28;20341;-67
2022/12/23 12:28:57;;;;;;;9.63;5.03;;;7.40;99.90;;;;;;4969604;28;20269;-67
2022/12/23 12:31:28;;;;;;;4.93;4.22;;;7.50;99.90;;;;;;4969704;28;20233;-67
2022/12/23 12:34:02;;;;;;;3.80;3.08;;;7.50;99.90;;;;;;4968542;28;20211;-67
2022/12/23 12:36:38;;;;;;;13.60;3.90;;;7.50;99.90;;;;;;4967022;28;20305;-67
2022/12/23 12:39:08;;;;;;;9.38;4.35;;;7.50;99.90;;;;;;4969065;28;20222;-66
2022/12/23 12:41:38;;;;;;;9.60;4.05;;;7.50;99.90;;;;;;4966788;28;20230;-66
2022/12/23 12:44:23;;;;;;;6.63;4.40;;;7.50;99.90;;;;;;4968177;28;20829;-66
2022/12/23 12:46:57;;;;;;;4.40;3.88;;;7.50;99.90;;;;;;4968496;28;20303;-67
2022/12/23 12:49:30;;;;;;;14.82;4.90;;;7.50;99.90;;;;;;4965857;28;20230;-66
2022/12/23 12:52:07;;;;;;;4.45;4.15;;;7.60;99.90;;;;;;4971361;28;20298;-66
2022/12/23 12:54:39;;;;;;;6.05;4.50;;;7.50;99.90;;;;;;4964284;28;20671;-67
2022/12/23 12:57:12;;;;;;;4.28;3.88;;;7.60;99.90;;;;;;4966038;28;20266;-68
2022/12/23 12:59:41;;;;;;;4.00;3.60;;;7.60;99.90;;;;;;4967351;28;20238;-66
2022/12/23 13:02:42;;;;;;;4.70;4.47;;;7.80;99.90;;;;;;4968771;28;20603;-67
2022/12/23 13:05:36;;;;;;;10.50;3.42;;;7.70;99.90;;;;;;4959692;28;20207;-66
2022/12/23 13:08:17;;;;;;;6.63;3.28;;;7.60;99.90;;;;;;4953880;28;20252;-67
2022/12/23 13:10:49;;;;;;;4.15;3.85;;;7.60;99.90;;;;;;4970964;28;20237;-67
2022/12/23 13:13:26;;;;;;;5.80;4.07;;;7.50;99.90;;;;;;4965488;28;20259;-68
2022/12/23 13:16:02;;;;;;;5.78;2.53;;;7.50;99.90;;;;;;4971492;28;20574;-67
2022/12/23 13:18:39;;;;;;;8.45;5.72;;;7.50;99.90;;;;;;4960582;28;20208;-68
2022/12/23 13:21:12;;;;;;;6.43;5.82;;;7.50;99.90;;;;;;4969674;28;20289;-68
2022/12/23 13:23:45;;;;;;;12.38;2.97;;;7.50;99.90;;;;;;4967266;28;20218;-68
2022/12/23 13:26:25;;;;;;;8.05;4.22;;;7.40;99.90;;;;;;4967418;28;20218;-69
2022/12/23 13:29:03;;;;;;;3.20;2.70;;;7.40;99.90;;;;;;4959086;28;20273;-68
2022/12/23 13:31:44;;;;;;;3.83;3.20;;;7.40;99.90;;;;;;4969040;28;20233;-69
2022/12/23 13:34:24;;;;;;;7.40;4.75;;;7.40;99.90;;;;;;4969543;28;20273;-68
2022/12/23 13:36:58;;;;;;;4.55;4.07;;;7.30;99.90;;;;;;4960051;28;20207;-68
2022/12/23 13:39:42;;;;;;;5.93;3.85;;;7.30;99.90;;;;;;4968275;28;20334;-68
2022/12/23 13:42:13;;;;;;;4.63;4.05;;;7.30;99.90;;;;;;4970158;28;20230;-68
2022/12/23 13:44:40;;;;;;;2.90;2.60;;;7.30;99.90;;;;;;4969578;28;20263;-68
2022/12/23 13:47:15;;;;;;;5.55;4.82;;;7.20;99.90;;;;;;4964253;28;20210;-68
2022/12/23 13:49:59;;;;;;;4.70;4.25;;;7.30;99.90;;;;;;4959412;28;20210;-68
2022/12/23 13:52:46;;;;;;;10.13;4.43;;;7.20;99.90;;;;;;4969878;28;20232;-68
2022/12/23 13:55:25;;;;;;;5.95;4.20;;;7.20;99.90;;;;;;4968513;28;20206;-68
2022/12/23 13:57:58;;;;;;;11.88;4.78;;;7.20;99.90;;;;;;4969175;28;20214;-68
2022/12/23 14:00:28;;;;;;;9.23;4.90;;;7.20;99.90;;;;;;4968730;28;20258;-68
2022/12/23 14:03:22;;;;;;;12.68;6.72;;;7.20;99.90;;;;;;4967535;28;20216;-68
2022/12/23 14:05:51;;;;;;;7.95;5.43;;;7.20;99.90;;;;;;4967730;28;20265;-68
2022/12/23 14:08:24;;;;;;;4.60;4.13;;;7.20;99.90;;;;;;4981843;28;20233;-68
2022/12/23 14:10:55;;;;;;;7.63;4.88;;;7.20;99.90;;;;;;4974857;28;20230;-68
2022/12/23 14:13:24;;;;;;;5.10;4.65;;;7.20;99.90;;;;;;4968365;28;20691;-68
2022/12/23 14:16:12;;;;;;;4.00;3.65;;;7.20;99.90;;;;;;4969297;28;20222;-68
2022/12/23 14:19:31;;;;;;;4.20;3.80;;;7.20;99.90;;;;;;4960782;28;20204;-68
2022/12/23 14:22:11;;;;;;;4.70;3.90;;;7.20;99.90;;;;;;4882526;29;20234;-68
2022/12/23 14:25:02;;;;;;;5.70;2.83;;;7.10;99.90;;;;;;4970705;28;20649;-68
2022/12/23 14:27:41;;;;;;;2.88;2.78;;;7.10;99.90;;;;;;4958527;28;20258;-68
2022/12/23 14:30:13;;;;;;;6.28;4.57;;;7.10;99.90;;;;;;4966479;28;20812;-68
2022/12/23 14:32:46;;;;;;;4.25;2.75;;;7.00;99.90;;;;;;4969102;28;20306;-68
2022/12/23 14:35:35;;;;;;;4.10;3.80;;;7.00;99.90;;;;;;4968972;28;20214;-68
2022/12/23 14:38:09;;;;;;;3.15;2.38;;;7.00;99.90;;;;;;4967296;28;20604;-68
2022/12/23 14:41:07;;;;;;;9.05;3.13;;;7.00;99.90;;;;;;4963427;28;20231;-68
2022/12/23 14:43:54;;;;;;;6.32;4.00;;;7.00;99.90;;;;;;4963145;28;20218;-68
2022/12/23 14:46:56;;;;;;;5.18;3.63;;;7.10;99.90;;;;;;4967171;28;20203;-69
2022/12/23 14:49:42;;;;;;;7.75;4.20;;;7.10;99.90;;;;;;4947895;28;20268;-68
2022/12/23 14:52:48;;;;;;;5.35;3.88;;;7.00;99.90;;;;;;4960301;28;20298;-68
2022/12/23 14:55:42;;;;;;;8.57;4.28;;;7.00;99.90;;;;;;4966925;28;20206;-68
2022/12/23 14:58:26;;;;;;;7.07;5.45;;;7.00;99.90;;;;;;4964072;28;20313;-69
2022/12/23 15:01:00;;;;;;;5.38;3.45;;;7.10;99.90;;;;;;4969297;28;20305;-68
2022/12/23 15:03:32;;;;;;;13.32;7.35;;;7.00;99.90;;;;;;4956570;28;20535;-68
2022/12/23 15:06:03;;;;;;;12.50;3.63;;;7.00;99.90;;;;;;4960547;28;20212;-68
2022/12/23 15:08:33;;;;;;;12.90;4.47;;;7.10;99.90;;;;;;4964639;28;20215;-66
2022/12/23 15:11:00;;;;;;;5.32;4.70;;;7.00;99.90;;;;;;4964209;28;20289;-67
2022/12/23 15:13:29;;;;;;;9.20;4.70;;;7.10;99.90;;;;;;4966809;28;20207;-67
2022/12/23 15:15:56;;;;;;;4.68;4.22;;;7.10;99.90;;;;;;4958779;28;20250;-67
2022/12/23 15:18:24;;;;;;;5.60;3.88;;;7.10;99.90;;;;;;4963412;28;20220;-66
2022/12/23 15:20:58;;;;;;;5.05;4.55;;;7.10;99.90;;;;;;4962159;28;20230;-66
2022/12/23 15:23:25;;;;;;;4.40;4.00;;;7.10;99.90;;;;;;4968132;28;20211;-67
2022/12/23 15:25:57;;;;;;;5.90;3.53;;;7.10;99.90;;;;;;4966937;28;20282;-67
2022/12/23 15:28:32;;;;;;;5.60;5.10;;;7.10;99.90;;;;;;4971165;28;20651;-67
2022/12/23 15:30:59;;;;;;;11.43;4.57;;;7.10;99.90;;;;;;4968304;28;20693;-67
2022/12/23 15:33:28;;;;;;;11.82;5.10;;;7.10;99.90;;;;;;4969592;28;20215;-67
2022/12/23 15:35:55;;;;;;;9.88;6.35;;;7.10;99.90;;;;;;4970442;28;20233;-67
2022/12/23 15:38:26;;;;;;;5.88;3.28;;;7.10;99.90;;;;;;4969240;28;20202;-69
2022/12/23 15:40:59;;;;;;;4.82;4.00;;;7.10;99.90;;;;;;4965595;28;20235;-67
2022/12/23 15:43:25;;;;;;;4.03;3.65;;;7.10;99.90;;;;;;4968478;28;20203;-67
2022/12/23 15:45:53;;;;;;;8.20;2.85;;;7.10;99.90;;;;;;4955857;28;20210;-67
2022/12/23 15:48:24;;;;;;;3.20;2.90;;;7.10;99.90;;;;;;4967428;28;20657;-68
2022/12/23 15:50:55;;;;;;;5.32;3.75;;;7.10;99.90;;;;;;4969149;28;20223;-67
2022/12/23 15:53:23;;;;;;;6.68;6.10;;;7.00;99.90;;;;;;4963498;28;20266;-68
2022/12/23 15:55:50;;;;;;;13.85;4.80;;;7.00;99.90;;;;;;4973507;28;20206;-68
2022/12/23 15:58:23;;;;;;;2.90;2.45;;;7.00;99.90;;;;;;4958780;28;20536;-68
2022/12/23 16:00:52;;;;;;;10.02;4.90;;;7.00;99.90;;;;;;4965820;28;20235;-68
2022/12/23 16:03:31;;;;;;;4.38;3.95;;;7.00;99.90;;;;;;4969611;28;20211;-68
2022/12/23 16:06:10;;;;;;;15.82;5.20;;;6.90;99.90;;;;;;4967377;28;20272;-68
2022/12/23 16:08:38;;;;;;;5.47;3.95;;;6.90;99.90;;;;;;4970183;28;20213;-68
2022/12/23 16:11:13;;;;;;;5.68;3.65;;;6.90;99.90;;;;;;4964971;28;20286;-68
2022/12/23 16:13:53;;;;;;;4.57;4.20;;;6.90;99.90;;;;;;4966103;28;20218;-68
2022/12/23 16:16:38;;;;;;;9.07;5.40;;;6.80;99.90;;;;;;4967122;28;20218;-68
2022/12/23 16:19:04;;;;;;;4.35;3.65;;;6.80;99.90;;;;;;4962162;28;20297;-68
2022/12/23 16:21:35;;;;;;;24.73;5.43;;;6.80;99.90;;;;;;4972803;28;20374;-67
2022/12/23 16:24:06;;;;;;;14.00;3.65;;;6.80;99.90;;;;;;4973046;28;20206;-67
2022/12/23 16:26:39;;;;;;;16.30;4.18;;;6.80;99.90;;;;;;4970417;28;20299;-67
2022/12/23 16:29:10;;;;;;;3.70;3.40;;;6.80;99.90;;;;;;4968792;28;20210;-67
2022/12/23 16:31:37;;;;;;;2.78;2.58;;;6.70;99.90;;;;;;4967976;28;20231;-67
2022/12/23 16:34:06;;;;;;;14.82;4.78;;;6.70;99.90;;;;;;4970429;28;20270;-67
2022/12/23 16:36:36;;;;;;;4.90;4.47;;;6.70;99.90;;;;;;4963092;28;20218;-67
2022/12/23 16:39:16;;;;;;;5.30;3.97;;;6.70;99.90;;;;;;4968277;28;20207;-67
2022/12/23 16:41:43;;;;;;;4.95;3.65;;;6.60;99.90;;;;;;4957370;28;20709;-66
2022/12/23 16:44:11;;;;;;;11.50;3.10;;;6.60;99.90;;;;;;4966546;28;20211;-66
2022/12/23 16:46:41;;;;;;;11.05;4.00;;;6.60;99.90;;;;;;4972893;28;20312;-66
2022/12/23 16:49:14;;;;;;;11.10;5.65;;;6.60;99.90;;;;;;4961984;28;20215;-66
2022/12/23 16:51:41;;;;;;;3.70;3.50;;;6.50;99.90;;;;;;4965787;28;20652;-65
2022/12/23 16:54:13;;;;;;;6.72;4.05;;;6.50;99.90;;;;;;4971048;28;20305;-66
2022/12/23 16:56:40;;;;;;;7.65;4.95;;;6.50;99.90;;;;;;4972233;28;20269;-66
2022/12/23 16:59:06;;;;;;;4.70;4.07;;;6.50;99.90;;;;;;4963851;28;20313;-67
2022/12/23 17:01:37;;;;;;;6.45;4.30;;;6.50;99.90;;;;;;4962640;28;20242;-67
2022/12/23 17:04:05;;;;;;;7.63;3.67;;;6.50;99.90;;;;;;4966506;28;20211;-69
2022/12/23 17:06:32;;;;;;;13.38;8.73;;;6.40;99.90;;;;;;4966035;28;20206;-68
2022/12/23 17:08:58;;;;;;;4.82;4.57;;;6.40;99.90;;;;;;4962561;28;20653;-67
2022/12/23 17:11:28;;;;;;;5.45;3.90;;;6.50;99.90;;;;;;4961858;28;20693;-67
2022/12/23 17:13:55;;;;;;;5.15;3.03;;;6.50;99.90;;;;;;4963268;28;20206;-67
2022/12/23 17:16:23;;;;;;;5.45;4.68;;;6.50;99.90;;;;;;4969924;28;20214;-67
2022/12/23 17:18:52;;;;;;;6.47;5.80;;;6.50;99.90;;;;;;4961392;28;20676;-67
2022/12/23 17:21:23;;;;;;;5.35;2.25;;;6.50;99.90;;;;;;4966747;28;20234;-67
2022/12/23 17:23:50;;;;;;;5.93;2.47;;;6.50;99.90;;;;;;4962314;28;20210;-67
2022/12/23 17:26:17;;;;;;;26.02;6.88;;;6.50;99.90;;;;;;4969606;28;20210;-67
2022/12/23 17:28:44;;;;;;;2.35;2.25;;;6.50;99.90;;;;;;4972342;28;20638;-67
2022/12/23 17:31:12;;;;;;;3.05;2.85;;;6.50;99.90;;;;;;4969765;28;20708;-67
2022/12/23 17:33:39;;;;;;;8.07;2.92;;;6.50;99.90;;;;;;4967454;28;20215;-67
2022/12/23 17:36:09;;;;;;;16.35;5.30;;;6.50;99.90;;;;;;4969781;28;20214;-67
2022/12/23 17:38:36;;;;;;;25.63;3.95;;;6.50;99.90;;;;;;4963958;28;20677;-67
2022/12/23 17:41:03;;;;;;;5.50;2.88;;;6.50;99.90;;;;;;4968856;28;20358;-67
2022/12/23 17:43:30;;;;;;;10.20;5.00;;;6.50;99.90;;;;;;4957021;28;20272;-67
2022/12/23 17:45:57;;;;;;;24.45;4.03;;;6.50;99.90;;;;;;4957095;28;20205;-67
2022/12/23 17:48:23;;;;;;;10.10;4.80;;;6.50;99.90;;;;;;4968698;28;20219;-67
2022/12/23 17:50:50;;;;;;;4.93;3.13;;;6.50;99.90;;;;;;4969204;28;20229;-67
2022/12/23 17:53:19;;;;;;;12.30;6.97;;;6.50;99.90;;;;;;4963168;28;20317;-67
2022/12/23 17:55:46;;;;;;;3.78;3.47;;;6.50;99.90;;;;;;4968195;28;20269;-67
2022/12/23 17:58:13;;;;;;;2.15;2.05;;;6.50;99.90;;;;;;4970777;28;20210;-67
2022/12/23 18:00:40;;;;;;;14.70;4.75;;;6.50;99.90;;;;;;4971069;28;20644;-67
2022/12/23 18:03:22;;;;;;;5.07;4.43;;;6.50;99.90;;;;;;4962007;28;20233;-67
2022/12/23 18:05:49;;;;;;;8.05;6.05;;;6.50;99.90;;;;;;4966428;28;20237;-67
2022/12/23 18:08:23;;;;;;;8.48;6.32;;;6.50;99.90;;;;;;5084808;27;20557;-66
2022/12/23 18:10:50;;;;;;;6.05;3.20;;;6.50;99.90;;;;;;5070179;28;20235;-67
2022/12/23 18:13:19;;;;;;;13.35;5.22;;;6.50;99.90;;;;;;5066141;28;20246;-67